createdAt,value
2023-03-29T00:02:07.388Z,38.80
2023-03-29T00:04:34.741Z,37.38
2023-03-29T00:07:04.544Z,36.97
2023-03-29T00:09:35.868Z,38.53
2023-03-29T00:12:03.078Z,34.85
2023-03-29T00:14:32.827Z,37.40
2023-03-29T00:16:59.644Z,36.95
2023-03-29T00:19:26.565Z,34.65
2023-03-29T00:21:53.460Z,37.55
2023-03-29T00:24:21.320Z,32.92
2023-03-29T00:26:48.688Z,39.20
2023-03-29T00:29:16.104Z,41.20
2023-03-29T00:31:46.009Z,36.72
2023-03-29T00:34:12.831Z,38.30
2023-03-29T00:36:40.439Z,38.25
2023-03-29T00:39:07.401Z,39.85
2023-03-29T00:41:34.159Z,35.80
2023-03-29T00:44:02.871Z,38.78
2023-03-29T00:46:31.220Z,40.03
2023-03-29T00:49:12.723Z,37.58
2023-03-29T00:51:41.475Z,38.60
2023-03-29T00:54:14.814Z,31.65
2023-03-29T00:56:44.960Z,35.72
2023-03-29T00:59:24.646Z,34.63
2023-03-29T01:01:57.548Z,33.53
2023-03-29T01:04:33.977Z,33.28
2023-03-29T01:07:06.032Z,38.58
2023-03-29T01:09:37.542Z,43.83
2023-03-29T01:12:13.916Z,43.25
2023-03-29T01:14:49.072Z,42.83
2023-03-29T01:17:16.235Z,41.85
2023-03-29T01:19:50.928Z,44.45
2023-03-29T01:22:38.759Z,45.10
2023-03-29T01:25:21.341Z,41.95
2023-03-29T01:28:04.202Z,38.72
2023-03-29T01:30:40.075Z,40.47
2023-03-29T01:33:23.635Z,49.28
2023-03-29T01:36:03.547Z,81.03
2023-03-29T01:38:54.610Z,86.03
2023-03-29T01:41:21.768Z,83.65
2023-03-29T01:43:56.384Z,52.30
2023-03-29T01:46:35.516Z,49.85
2023-03-29T01:49:14.638Z,37.72
2023-03-29T01:51:53.403Z,55.97
2023-03-29T01:54:36.566Z,61.63
2023-03-29T01:57:07.017Z,56.47
2023-03-29T01:59:36.981Z,64.35
2023-03-29T02:02:08.251Z,46.05
2023-03-29T02:07:08.772Z,42.53
2023-03-29T02:09:38.604Z,46.97
2023-03-29T02:12:07.259Z,43.88
2023-03-29T02:14:33.918Z,42.05
2023-03-29T02:17:23.417Z,45.25
2023-03-29T02:20:19.061Z,49.85
2023-03-29T02:23:18.704Z,49.13
2023-03-29T02:25:46.594Z,51.08
2023-03-29T02:28:14.640Z,42.95
2023-03-29T02:30:51.440Z,43.58
2023-03-29T02:33:25.719Z,52.42
2023-03-29T02:35:59.212Z,44.83
2023-03-29T02:38:27.873Z,49.25
2023-03-29T02:40:56.746Z,41.65
2023-03-29T02:43:26.147Z,41.13
2023-03-29T02:45:53.465Z,43.63
2023-03-29T02:48:25.399Z,42.55
2023-03-29T02:50:58.108Z,37.03
2023-03-29T02:53:36.070Z,38.22
2023-03-29T02:56:04.230Z,38.75
2023-03-29T02:58:31.716Z,44.28
2023-03-29T03:01:01.210Z,45.33
2023-03-29T03:03:29.145Z,46.38
2023-03-29T03:05:58.607Z,43.27
2023-03-29T03:08:25.458Z,42.72
2023-03-29T03:10:52.584Z,46.10
2023-03-29T03:13:19.574Z,55.70
2023-03-29T03:15:49.180Z,46.05
2023-03-29T03:18:16.879Z,37.05
2023-03-29T03:20:46.923Z,43.22
2023-03-29T03:23:13.729Z,45.05
2023-03-29T03:25:40.608Z,46.67
2023-03-29T03:28:07.638Z,43.28
2023-03-29T03:30:34.774Z,42.13
2023-03-29T03:33:16.968Z,37.88
2023-03-29T03:36:06.100Z,36.67
2023-03-29T03:38:36.160Z,38.20
2023-03-29T03:41:05.418Z,29.98
2023-03-29T03:43:34.145Z,28.38
2023-03-29T03:46:03.293Z,27.48
2023-03-29T03:48:30.548Z,28.98
2023-03-29T03:51:05.576Z,21.80
2023-03-29T03:53:35.128Z,24.80
2023-03-29T03:56:14.422Z,23.67
2023-03-29T03:59:01.123Z,26.02
2023-03-29T04:01:30.958Z,22.73
2023-03-29T04:04:13.139Z,23.88
2023-03-29T04:06:44.217Z,24.50
2023-03-29T04:09:31.294Z,25.52
2023-03-29T04:12:12.879Z,25.55
2023-03-29T04:14:41.553Z,24.25
2023-03-29T04:17:28.597Z,23.80
2023-03-29T04:19:55.779Z,26.65
2023-03-29T04:22:22.626Z,27.92
2023-03-29T04:24:49.299Z,35.28
2023-03-29T04:27:42.209Z,37.60
2023-03-29T04:30:17.906Z,45.88
2023-03-29T04:33:03.966Z,45.10
2023-03-29T04:35:31.568Z,40.00
2023-03-29T04:37:58.502Z,50.00
2023-03-29T04:40:25.272Z,46.50
2023-03-29T04:43:02.648Z,44.97
2023-03-29T04:45:30.367Z,43.28
2023-03-29T04:48:17.105Z,46.35
2023-03-29T04:50:48.285Z,37.28
2023-03-29T04:53:17.365Z,42.10
2023-03-29T04:55:47.017Z,38.70
2023-03-29T04:58:21.401Z,36.95
2023-03-29T05:00:49.563Z,222.10
2023-03-29T05:03:45.364Z,44.63
2023-03-29T05:06:18.552Z,41.85
2023-03-29T05:08:45.298Z,45.88
2023-03-29T05:11:40.895Z,39.25
2023-03-29T05:14:09.306Z,43.10
2023-03-29T05:16:38.144Z,40.95
2023-03-29T05:19:05.921Z,41.72
2023-03-29T05:21:36.650Z,37.25
2023-03-29T05:24:07.436Z,50.47
2023-03-29T05:26:43.799Z,48.67
2023-03-29T05:29:10.718Z,38.38
2023-03-29T05:31:37.920Z,40.20
2023-03-29T05:34:05.514Z,39.67
2023-03-29T05:36:34.706Z,39.05
2023-03-29T05:39:01.940Z,30.23
2023-03-29T05:41:28.942Z,37.65
2023-03-29T05:44:34.340Z,37.25
2023-03-29T05:47:12.011Z,34.47
2023-03-29T05:49:39.467Z,38.55
2023-03-29T05:52:11.642Z,40.35
2023-03-29T05:54:39.053Z,43.92
2023-03-29T05:57:08.501Z,84.47
2023-03-29T05:59:37.072Z,58.17
2023-03-29T06:02:04.958Z,54.30
2023-03-29T06:04:33.961Z,50.53
2023-03-29T06:07:19.200Z,47.45
2023-03-29T06:10:06.304Z,58.15
2023-03-29T06:12:33.361Z,44.15
2023-03-29T06:15:04.837Z,43.03
2023-03-29T06:17:47.535Z,51.58
2023-03-29T06:20:14.958Z,51.33
2023-03-29T06:22:46.742Z,78.85
2023-03-29T06:25:15.455Z,66.20
2023-03-29T06:27:46.755Z,89.13
2023-03-29T06:30:16.936Z,98.38
2023-03-29T06:32:49.860Z,54.20
2023-03-29T06:35:49.686Z,38.83
2023-03-29T06:38:21.343Z,44.95
2023-03-29T06:41:08.250Z,42.25
2023-03-29T06:43:55.324Z,43.35
2023-03-29T06:46:24.839Z,53.30
2023-03-29T06:48:57.101Z,40.47
2023-03-29T06:51:32.787Z,49.05
2023-03-29T06:53:59.701Z,51.33
2023-03-29T06:56:26.940Z,35.58
2023-03-29T06:58:59.974Z,45.63
2023-03-29T07:01:35.079Z,33.10
2023-03-29T07:04:13.949Z,37.85
2023-03-29T07:07:04.089Z,49.10
2023-03-29T07:09:33.580Z,38.50
2023-03-29T07:12:18.823Z,34.50
2023-03-29T07:14:46.716Z,37.20
2023-03-29T07:17:14.917Z,27.98
2023-03-29T07:19:42.196Z,33.90
2023-03-29T07:22:31.984Z,30.75
2023-03-29T07:25:01.091Z,27.63
2023-03-29T07:27:29.145Z,29.02
2023-03-29T07:29:57.005Z,37.10
2023-03-29T07:32:24.231Z,47.45
2023-03-29T07:35:10.846Z,41.88
2023-03-29T07:37:38.093Z,37.03
2023-03-29T07:40:18.257Z,41.97
2023-03-29T07:42:57.438Z,114.88
2023-03-29T07:45:28.677Z,44.05
2023-03-29T07:48:09.010Z,53.95
2023-03-29T07:50:48.217Z,45.55
2023-03-29T07:53:17.390Z,128.07
2023-03-29T07:55:47.745Z,86.65
2023-03-29T07:58:47.152Z,28.20
2023-03-29T08:01:18.902Z,57.13
2023-03-29T08:04:05.137Z,29.67
2023-03-29T08:06:50.612Z,25.55
2023-03-29T08:09:18.829Z,24.75
2023-03-29T08:11:45.587Z,25.20
2023-03-29T08:14:19.643Z,24.42
2023-03-29T08:16:59.211Z,19.83
2023-03-29T08:19:26.279Z,20.10
2023-03-29T08:22:03.906Z,24.05
2023-03-29T08:24:48.488Z,23.85
2023-03-29T08:27:15.704Z,26.40
2023-03-29T08:29:42.732Z,25.05
2023-03-29T08:32:09.621Z,28.42
2023-03-29T08:34:37.236Z,24.23
2023-03-29T08:37:21.038Z,25.48
2023-03-29T08:39:50.836Z,37.60
2023-03-29T08:42:57.417Z,78.80
2023-03-29T08:46:06.332Z,21.77
2023-03-29T08:48:53.764Z,17.05
2023-03-29T08:51:28.286Z,30.75
2023-03-29T08:54:06.411Z,21.10
2023-03-29T08:57:01.207Z,39.65
2023-03-29T08:59:33.179Z,27.48
2023-03-29T09:02:06.047Z,17.35
2023-03-29T09:04:37.737Z,26.80
2023-03-29T09:09:54.894Z,74.15
2023-03-29T09:13:00.259Z,49.03
2023-03-29T09:15:40.221Z,44.70
2023-03-29T09:18:54.122Z,22.33
2023-03-29T09:21:27.442Z,23.08
2023-03-29T09:24:20.868Z,15.25
2023-03-29T09:27:05.294Z,18.00
2023-03-29T09:29:56.750Z,16.88
2023-03-29T09:32:51.749Z,20.38
2023-03-29T09:35:30.250Z,18.02
2023-03-29T09:37:58.069Z,19.77
2023-03-29T09:40:32.887Z,16.23
2023-03-29T09:43:18.445Z,18.42
2023-03-29T09:45:52.302Z,19.63
2023-03-29T09:48:21.298Z,18.15
2023-03-29T09:50:55.942Z,18.92
2023-03-29T09:53:22.975Z,18.13
2023-03-29T09:56:15.431Z,15.27
2023-03-29T09:58:51.340Z,12.13
2023-03-29T10:01:19.830Z,13.57
2023-03-29T10:03:52.323Z,21.13
2023-03-29T10:06:23.847Z,14.98
2023-03-29T10:08:57.237Z,17.48
2023-03-29T10:11:32.950Z,17.55
2023-03-29T10:14:40.537Z,14.60
2023-03-29T10:17:21.860Z,20.38
2023-03-29T10:19:55.735Z,18.30
2023-03-29T10:22:28.497Z,19.58
2023-03-29T10:24:58.012Z,16.25
2023-03-29T10:27:28.244Z,15.35
2023-03-29T10:29:56.653Z,13.27
2023-03-29T10:32:34.270Z,17.35
2023-03-29T10:35:26.085Z,22.50
2023-03-29T10:37:57.611Z,18.73
2023-03-29T10:40:31.896Z,18.20
2023-03-29T10:43:12.876Z,22.17
2023-03-29T10:45:41.086Z,22.98
2023-03-29T10:48:13.668Z,24.73
2023-03-29T10:50:40.664Z,26.48
2023-03-29T10:53:21.843Z,24.88
2023-03-29T10:56:16.185Z,19.95
2023-03-29T10:58:53.057Z,24.10
2023-03-29T11:01:58.305Z,20.85
2023-03-29T11:04:34.545Z,24.50
2023-03-29T11:07:12.146Z,20.95
2023-03-29T11:09:42.144Z,21.52
2023-03-29T11:12:31.225Z,23.88
2023-03-29T11:15:19.065Z,25.63
2023-03-29T11:18:09.505Z,23.88
2023-03-29T11:20:45.172Z,26.88
2023-03-29T11:23:39.899Z,19.55
2023-03-29T11:26:29.169Z,20.80
2023-03-29T11:29:05.831Z,18.60
2023-03-29T11:32:23.795Z,25.50
2023-03-29T11:35:29.164Z,22.83
2023-03-29T11:38:17.988Z,18.90
2023-03-29T11:41:15.790Z,26.80
2023-03-29T11:43:45.903Z,22.02
2023-03-29T11:46:20.193Z,21.23
2023-03-29T11:49:00.727Z,26.77
2023-03-29T11:51:36.611Z,17.35
2023-03-29T11:54:12.905Z,20.83
2023-03-29T11:56:59.639Z,21.17
2023-03-29T11:59:51.213Z,33.47
2023-03-29T12:04:54.935Z,21.15
2023-03-29T12:07:35.900Z,28.45
2023-03-29T12:10:27.337Z,22.27
2023-03-29T12:13:21.100Z,22.33
2023-03-29T12:16:13.757Z,16.52
2023-03-29T12:18:42.981Z,20.73
2023-03-29T12:21:14.896Z,18.38
2023-03-29T12:23:43.862Z,20.38
2023-03-29T12:26:29.065Z,19.90
2023-03-29T12:29:04.210Z,19.15
2023-03-29T12:31:42.028Z,20.52
2023-03-29T12:34:29.690Z,21.60
2023-03-29T12:37:32.209Z,18.77
2023-03-29T12:40:20.025Z,16.30
2023-03-29T12:43:23.287Z,13.32
2023-03-29T12:46:11.462Z,26.70
2023-03-29T12:48:41.600Z,16.70
2023-03-29T12:51:14.952Z,13.35
2023-03-29T12:53:46.349Z,15.98
2023-03-29T12:58:53.527Z,14.30
2023-03-29T13:01:37.051Z,9.65
2023-03-29T13:04:49.581Z,16.05
2023-03-29T13:07:22.313Z,19.63
2023-03-29T13:09:52.915Z,13.88
2023-03-29T13:12:20.254Z,14.98
2023-03-29T13:15:02.909Z,14.07
2023-03-29T13:17:49.357Z,9.15
2023-03-29T13:20:19.189Z,19.95
2023-03-29T13:22:51.848Z,19.30
2023-03-29T13:25:38.527Z,13.70
2023-03-29T13:28:27.410Z,16.15
2023-03-29T13:31:39.126Z,17.45
2023-03-29T13:34:31.076Z,18.30
2023-03-29T13:37:35.698Z,20.02
2023-03-29T13:40:02.447Z,15.88
2023-03-29T13:42:35.556Z,19.85
2023-03-29T13:45:15.439Z,15.65
2023-03-29T13:47:54.935Z,20.40
2023-03-29T13:50:40.377Z,14.85
2023-03-29T13:53:15.565Z,17.10
2023-03-29T13:55:52.414Z,20.45
2023-03-29T13:58:51.365Z,30.80
2023-03-29T14:01:28.917Z,19.77
2023-03-29T14:03:56.767Z,21.73
2023-03-29T14:06:29.324Z,29.98
2023-03-29T14:08:56.390Z,27.45
2023-03-29T14:11:29.092Z,28.63
2023-03-29T14:14:01.526Z,39.03
2023-03-29T14:16:32.867Z,37.75
2023-03-29T14:21:26.874Z,21.10
2023-03-29T14:24:23.173Z,31.70
2023-03-29T14:26:50.051Z,37.60
2023-03-29T14:29:18.282Z,25.17
2023-03-29T14:31:45.513Z,33.90
2023-03-29T14:34:15.128Z,27.48
2023-03-29T14:36:45.156Z,24.27
2023-03-29T14:39:17.437Z,27.45
2023-03-29T14:41:53.323Z,24.40
2023-03-29T14:44:27.036Z,26.05
2023-03-29T14:46:54.911Z,24.55
2023-03-29T14:49:22.978Z,27.42
2023-03-29T14:51:50.986Z,20.15
2023-03-29T14:54:25.609Z,22.08
2023-03-29T14:56:53.131Z,21.83
2023-03-29T14:59:37.650Z,18.13
2023-03-29T15:02:21.859Z,24.75
2023-03-29T15:05:04.626Z,21.65
2023-03-29T15:07:33.573Z,34.90
2023-03-29T15:10:02.250Z,30.42
2023-03-29T15:12:30.775Z,37.88
2023-03-29T15:14:59.604Z,25.60
2023-03-29T15:17:50.123Z,30.23
2023-03-29T15:20:33.400Z,32.15
2023-03-29T15:23:07.837Z,24.10
2023-03-29T15:25:37.383Z,25.13
2023-03-29T15:28:05.016Z,32.83
2023-03-29T15:30:44.237Z,29.00
2023-03-29T15:33:21.086Z,29.88
2023-03-29T15:35:51.538Z,50.15
2023-03-29T15:38:27.702Z,44.40
2023-03-29T15:41:04.081Z,33.17
2023-03-29T15:43:31.030Z,34.78
2023-03-29T15:45:58.016Z,33.15
2023-03-29T15:48:29.040Z,35.97
2023-03-29T15:50:57.194Z,36.20
2023-03-29T15:53:24.963Z,41.08
2023-03-29T15:55:54.647Z,35.75
2023-03-29T15:58:25.649Z,41.67
2023-03-29T16:01:02.602Z,47.20
2023-03-29T16:03:29.732Z,47.83
2023-03-29T16:05:57.051Z,41.28
2023-03-29T16:08:25.057Z,41.47
2023-03-29T16:10:52.122Z,37.28
2023-03-29T16:13:19.007Z,31.80
2023-03-29T16:15:46.022Z,43.97
2023-03-29T16:18:12.727Z,45.65
2023-03-29T16:20:39.662Z,30.42
2023-03-29T16:23:11.459Z,32.65
2023-03-29T16:25:39.971Z,29.50
2023-03-29T16:28:09.083Z,36.85
2023-03-29T16:30:37.543Z,33.42
2023-03-29T16:33:08.474Z,38.60
2023-03-29T16:35:40.416Z,38.53
2023-03-29T16:38:07.761Z,42.63
2023-03-29T16:40:35.661Z,41.33
2023-03-29T16:43:02.934Z,37.25
2023-03-29T16:45:29.708Z,36.35
2023-03-29T16:47:57.931Z,35.80
2023-03-29T16:50:24.862Z,44.22
2023-03-29T16:52:52.639Z,41.88
2023-03-29T16:55:19.844Z,50.45
2023-03-29T16:57:48.543Z,41.53
2023-03-29T17:00:17.112Z,44.55
2023-03-29T17:02:44.168Z,46.05
2023-03-29T17:05:12.486Z,44.38
2023-03-29T17:07:39.642Z,52.95
2023-03-29T17:10:08.269Z,38.17
2023-03-29T17:12:36.166Z,42.58
2023-03-29T17:15:05.162Z,39.08
2023-03-29T17:17:32.151Z,47.95
2023-03-29T17:19:58.857Z,36.97
2023-03-29T17:22:25.899Z,36.38
2023-03-29T17:24:52.653Z,43.63
2023-03-29T17:27:19.557Z,36.42
2023-03-29T17:29:46.286Z,28.60
2023-03-29T17:32:13.085Z,44.83
2023-03-29T17:34:39.820Z,39.13
2023-03-29T17:37:06.552Z,42.83
2023-03-29T17:39:37.154Z,43.72
2023-03-29T17:42:05.365Z,29.08
2023-03-29T17:44:33.340Z,47.50
2023-03-29T17:47:01.370Z,35.25
2023-03-29T17:49:28.533Z,48.33
2023-03-29T17:51:55.446Z,39.33
2023-03-29T17:54:22.163Z,40.38
2023-03-29T17:56:48.952Z,47.22
2023-03-29T17:59:16.325Z,43.78
2023-03-29T18:01:43.444Z,41.05
2023-03-29T18:04:10.614Z,43.53
2023-03-29T18:06:37.486Z,42.85
2023-03-29T18:09:04.745Z,44.17
2023-03-29T18:11:31.629Z,39.10
2023-03-29T18:14:00.336Z,38.47
2023-03-29T18:16:27.779Z,44.42
2023-03-29T18:18:54.565Z,38.13
2023-03-29T18:21:22.037Z,43.97
2023-03-29T18:23:49.890Z,35.85
2023-03-29T18:26:17.624Z,35.08
2023-03-29T18:28:48.665Z,30.85
2023-03-29T18:31:15.717Z,31.23
2023-03-29T18:33:42.561Z,43.88
2023-03-29T18:36:13.219Z,60.65
2023-03-29T18:38:43.416Z,107.25
2023-03-29T18:41:12.492Z,204.93
2023-03-29T18:43:40.581Z,90.97
2023-03-29T18:46:08.360Z,102.95
2023-03-29T18:48:38.955Z,107.82
2023-03-29T18:51:07.493Z,41.90
2023-03-29T18:53:35.861Z,126.68
2023-03-29T18:56:04.074Z,143.90
2023-03-29T18:58:31.257Z,84.03
2023-03-29T19:01:05.937Z,125.05
2023-03-29T19:03:34.481Z,91.85
2023-03-29T19:06:02.742Z,41.45
2023-03-29T19:08:29.790Z,34.15
2023-03-29T19:11:05.564Z,62.65
2023-03-29T19:13:32.265Z,66.18
2023-03-29T19:15:59.268Z,42.50
2023-03-29T19:18:26.695Z,41.70
2023-03-29T19:20:54.343Z,40.10
2023-03-29T19:23:22.291Z,52.03
2023-03-29T19:25:57.279Z,51.55
2023-03-29T19:28:25.026Z,43.50
2023-03-29T19:30:51.980Z,52.65
2023-03-29T19:33:20.008Z,58.90
2023-03-29T19:35:47.164Z,50.25
2023-03-29T19:38:13.997Z,39.58
2023-03-29T19:40:45.268Z,46.13
2023-03-29T19:45:44.334Z,44.20
2023-03-29T19:48:21.091Z,43.92
2023-03-29T19:50:48.865Z,43.13
2023-03-29T19:53:15.747Z,50.53
2023-03-29T19:55:44.202Z,44.40
2023-03-29T19:58:11.038Z,71.63
2023-03-29T20:00:38.982Z,58.67
2023-03-29T20:03:09.745Z,50.50
2023-03-29T20:05:37.486Z,54.15
2023-03-29T20:08:04.256Z,54.90
2023-03-29T20:10:31.077Z,50.35
2023-03-29T20:12:57.854Z,41.63
2023-03-29T20:15:27.461Z,48.88
2023-03-29T20:17:59.147Z,55.25
2023-03-29T20:20:27.409Z,57.13
2023-03-29T20:22:58.102Z,50.67
2023-03-29T20:25:25.069Z,57.92
2023-03-29T20:27:53.188Z,51.55
2023-03-29T20:30:20.616Z,51.10
2023-03-29T20:32:47.549Z,57.05
2023-03-29T20:35:14.419Z,46.90
2023-03-29T20:37:41.434Z,66.63
2023-03-29T20:40:08.853Z,52.83
2023-03-29T20:42:36.753Z,63.15
2023-03-29T20:45:04.504Z,54.50
2023-03-29T20:47:31.619Z,48.60
2023-03-29T20:49:58.861Z,54.42
2023-03-29T20:52:25.563Z,54.50
2023-03-29T20:54:52.267Z,63.92
2023-03-29T20:57:20.969Z,59.60
2023-03-29T20:59:49.196Z,53.83
2023-03-29T21:02:21.756Z,49.53
2023-03-29T21:04:52.868Z,43.10
2023-03-29T21:07:21.497Z,39.92
2023-03-29T21:09:49.963Z,41.90
2023-03-29T21:12:17.512Z,53.58
2023-03-29T21:14:44.858Z,37.05
2023-03-29T21:17:11.765Z,40.60
2023-03-29T21:19:39.456Z,39.63
2023-03-29T21:22:06.827Z,33.67
2023-03-29T21:24:34.145Z,43.65
2023-03-29T21:27:00.939Z,36.45
2023-03-29T21:29:28.013Z,39.65
2023-03-29T21:31:55.177Z,37.53
2023-03-29T21:34:22.182Z,29.85
2023-03-29T21:36:49.398Z,30.48
2023-03-29T21:39:16.325Z,30.52
2023-03-29T21:41:43.340Z,22.27
2023-03-29T21:44:10.132Z,22.38
2023-03-29T21:46:37.148Z,25.90
2023-03-29T21:49:03.982Z,27.40
2023-03-29T21:51:30.931Z,24.40
2023-03-29T21:53:57.614Z,23.38
2023-03-29T21:56:24.477Z,23.88
2023-03-29T21:58:51.167Z,39.15
2023-03-29T22:01:18.079Z,45.92
2023-03-29T22:03:44.914Z,41.38
2023-03-29T22:06:13.688Z,45.95
2023-03-29T22:08:40.814Z,38.35
2023-03-29T22:11:14.373Z,44.53
2023-03-29T22:13:43.062Z,31.58
2023-03-29T22:16:14.016Z,30.80
2023-03-29T22:18:45.067Z,44.58
2023-03-29T22:21:15.232Z,22.63
2023-03-29T22:23:47.145Z,39.08
2023-03-29T22:26:16.204Z,40.88
2023-03-29T22:28:43.309Z,48.22
2023-03-29T22:31:13.779Z,39.15
2023-03-29T22:33:41.049Z,42.67
2023-03-29T22:36:18.416Z,34.13
2023-03-29T22:38:46.249Z,39.20
2023-03-29T22:41:14.034Z,31.80
2023-03-29T22:43:41.291Z,33.05
2023-03-29T22:46:10.267Z,29.33
2023-03-29T22:48:37.643Z,31.77
2023-03-29T22:51:05.758Z,26.75
2023-03-29T22:53:33.436Z,21.88
2023-03-29T22:56:00.422Z,41.25
2023-03-29T22:58:27.240Z,33.35
2023-03-29T23:00:54.080Z,30.58
2023-03-29T23:03:23.843Z,32.35
2023-03-29T23:05:55.826Z,36.45
2023-03-29T23:08:24.137Z,28.65
2023-03-29T23:10:51.167Z,29.27
2023-03-29T23:13:28.738Z,29.73
2023-03-29T23:15:58.974Z,39.25
2023-03-29T23:18:28.721Z,29.90
2023-03-29T23:20:57.358Z,35.63
2023-03-29T23:23:26.755Z,25.38
2023-03-29T23:25:55.671Z,30.27
2023-03-29T23:28:25.126Z,27.95
2023-03-29T23:31:03.667Z,25.00
2023-03-29T23:33:33.746Z,19.95
2023-03-29T23:36:04.802Z,28.23
2023-03-29T23:38:33.314Z,26.42
2023-03-29T23:41:02.384Z,23.02
2023-03-29T23:43:34.173Z,22.88
2023-03-29T23:46:03.369Z,20.92
2023-03-29T23:48:30.568Z,18.45
2023-03-29T23:50:57.514Z,20.15
2023-03-29T23:53:29.000Z,26.65
2023-03-29T23:55:58.376Z,25.10
2023-03-29T23:58:25.100Z,20.48
